Terminal Aerodrome Forecast
Issued by NWS Boise, ID

Home | Current Version | Previous Version | Text Only | Print | Product List | Glossary On
Versions: 1 2 3 4 5 6 7 8 9 10 11 12 13 14 15 16 17 18 19 20 21 22 23
000
FTUS45 KBOI 211724
TAFBOI
TAF
KBOI 211724Z 2118/2218 16009KT P6SM BKN200
     FM220000 13006KT P6SM BKN120 OVC200
     FM220600 VRB04KT P6SM VCSH FEW070 BKN100
     FM221200 14005KT P6SM SCT100=

USA.gov is the U.S. government's official web portal to all federal, state and local government web resources and services.